createdAt,value
2022-12-31T00:04:03.675Z,0.27424749163879597
2022-12-31T00:11:20.714Z,0.3511705685618729
2022-12-31T00:17:41.207Z,0.35451505016722407
2022-12-31T00:24:02.234Z,0.2608695652173913
2022-12-31T00:30:21.556Z,0.26755852842809363
2022-12-31T00:37:33.828Z,0.17391304347826086
2022-12-31T00:43:53.842Z,0.22073578595317725
2022-12-31T01:01:01.179Z,0.2809364548494983
2022-12-31T01:12:58.557Z,0.5484949832775919
2022-12-31T01:19:51.515Z,0.34782608695652173
2022-12-31T01:26:11.289Z,0.3277591973244147
2022-12-31T01:32:30.445Z,0.35451505016722407
2022-12-31T01:38:49.266Z,0.22073578595317725
2022-12-31T01:45:08.294Z,0.6086956521739131
2022-12-31T01:51:27.588Z,0.35451505016722407
2022-12-31T02:02:22.642Z,0.08695652173913043
2022-12-31T02:08:42.565Z,0.1806020066889632
2022-12-31T02:15:01.925Z,0.2608695652173913
2022-12-31T02:21:21.000Z,0.08695652173913043
2022-12-31T02:27:40.876Z,0.0
2022-12-31T02:34:00.967Z,0.26755852842809363
2022-12-31T02:40:20.724Z,0.2140468227424749
2022-12-31T02:46:40.394Z,0.09364548494983277
2022-12-31T02:52:59.345Z,0.08695652173913043
2022-12-31T02:59:17.722Z,0.08695652173913043
2022-12-31T03:11:47.821Z,0.26755852842809363
2022-12-31T03:18:07.231Z,0.09364548494983277
2022-12-31T03:24:27.053Z,0.1806020066889632
2022-12-31T03:30:46.011Z,0.2608695652173913
2022-12-31T03:37:04.746Z,0.27424749163879597
2022-12-31T03:47:53.275Z,0.23411371237458195
2022-12-31T03:54:13.600Z,0.26755852842809363
2022-12-31T04:00:32.766Z,0.0
2022-12-31T04:06:51.711Z,0.09364548494983277
2022-12-31T04:13:10.431Z,0.08695652173913043
2022-12-31T04:25:19.595Z,0.09364548494983277
2022-12-31T04:31:38.479Z,0.0
2022-12-31T04:47:57.625Z,0.0
2022-12-31T04:54:16.534Z,0.0
2022-12-31T05:00:35.318Z,0.0
2022-12-31T05:13:07.713Z,0.0
2022-12-31T05:19:27.550Z,0.0
2022-12-31T05:31:21.845Z,0.0
2022-12-31T05:40:42.208Z,0.0
2022-12-31T05:47:25.536Z,0.08695652173913043
2022-12-31T05:53:45.092Z,0.0
2022-12-31T06:00:04.589Z,0.20066889632107024
2022-12-31T06:12:40.571Z,0.08695652173913043
2022-12-31T06:19:00.006Z,0.26755852842809363
2022-12-31T06:25:19.702Z,0.1806020066889632
2022-12-31T06:35:37.160Z,0.09364548494983277
2022-12-31T06:41:56.177Z,0.09364548494983277
2022-12-31T06:48:17.078Z,0.08695652173913043
2022-12-31T06:54:36.661Z,0.17391304347826086
2022-12-31T07:00:56.176Z,0.08695652173913043
2022-12-31T07:07:16.688Z,0.0
2022-12-31T07:18:36.619Z,0.26755852842809363
2022-12-31T07:24:55.855Z,0.1806020066889632
2022-12-31T07:43:32.561Z,0.08695652173913043
2022-12-31T07:49:52.146Z,0.5284280936454849
2022-12-31T07:56:10.801Z,0.1806020066889632
2022-12-31T08:02:30.076Z,0.08695652173913043
2022-12-31T08:08:49.213Z,0.24749163879598662
2022-12-31T08:15:09.481Z,0.27424749163879597
2022-12-31T08:21:34.851Z,0.1806020066889632
2022-12-31T08:27:57.299Z,0.1806020066889632
2022-12-31T08:34:19.940Z,0.1806020066889632
2022-12-31T08:43:51.306Z,0.17391304347826086
2022-12-31T08:50:13.121Z,0.0
2022-12-31T08:56:34.923Z,0.08695652173913043
2022-12-31T09:04:58.186Z,0.0
2022-12-31T09:11:23.275Z,0.0
2022-12-31T09:21:20.687Z,0.08695652173913043
2022-12-31T09:27:43.181Z,0.08695652173913043
2022-12-31T09:34:08.291Z,0.0
2022-12-31T09:46:12.192Z,0.08695652173913043
2022-12-31T09:52:33.808Z,0.26755852842809363
2022-12-31T09:58:55.152Z,0.08695652173913043
2022-12-31T10:05:17.426Z,0.0
2022-12-31T10:11:39.284Z,0.17391304347826086
2022-12-31T10:18:01.626Z,0.07357859531772576
2022-12-31T10:24:23.949Z,0.020066889632107024
2022-12-31T10:30:45.951Z,0.0
2022-12-31T10:37:08.599Z,0.08695652173913043
2022-12-31T10:43:31.674Z,0.0
2022-12-31T10:49:53.403Z,0.0
2022-12-31T10:56:19.444Z,0.08695652173913043
2022-12-31T11:02:43.906Z,0.0
2022-12-31T11:09:12.343Z,0.0
2022-12-31T11:15:34.357Z,0.0
2022-12-31T11:21:55.987Z,0.40468227424749165
2022-12-31T11:28:20.865Z,0.08695652173913043
2022-12-31T11:34:42.824Z,0.0
2022-12-31T11:47:08.610Z,0.0
2022-12-31T11:56:20.165Z,0.0
2022-12-31T12:02:42.291Z,0.17391304347826086
2022-12-31T12:09:04.552Z,0.0
2022-12-31T12:15:27.083Z,0.0
2022-12-31T12:21:49.539Z,0.26755852842809363
2022-12-31T12:28:11.171Z,0.26755852842809363
2022-12-31T12:34:34.321Z,0.4414715719063545
2022-12-31T12:40:56.042Z,0.2608695652173913
2022-12-31T12:47:18.350Z,0.17391304347826086
2022-12-31T12:53:41.121Z,0.18729096989966554
2022-12-31T13:00:25.747Z,0.41471571906354515
2022-12-31T13:13:23.224Z,0.10033444816053512
2022-12-31T13:20:49.862Z,0.09364548494983277
2022-12-31T13:27:12.518Z,0.34782608695652173
2022-12-31T13:33:35.667Z,0.5351170568561873
2022-12-31T13:39:57.144Z,0.3411371237458194
2022-12-31T13:46:17.517Z,0.2408026755852843
2022-12-31T13:52:39.214Z,0.26755852842809363
2022-12-31T13:59:00.536Z,0.3612040133779264
2022-12-31T14:15:20.485Z,0.2608695652173913
2022-12-31T14:21:41.633Z,0.0
2022-12-31T14:28:06.028Z,0.5351170568561873
2022-12-31T14:37:11.801Z,0.08695652173913043
2022-12-31T14:43:32.120Z,0.4414715719063545
2022-12-31T14:49:50.681Z,0.14046822742474915
2022-12-31T14:56:10.897Z,0.44816053511705684
2022-12-31T15:02:30.754Z,0.8963210702341137
2022-12-31T15:08:50.215Z,0.7157190635451505
2022-12-31T15:15:10.015Z,0.6555183946488294
2022-12-31T15:22:47.698Z,0.48494983277591974
2022-12-31T15:29:07.492Z,0.5083612040133779
2022-12-31T15:35:26.725Z,0.8695652173913043
2022-12-31T15:42:18.624Z,0.4214046822742475
2022-12-31T15:49:00.467Z,0.34782608695652173
2022-12-31T15:55:23.389Z,0.27424749163879597
2022-12-31T16:01:43.628Z,0.7023411371237458
2022-12-31T16:08:03.543Z,0.5284280936454849
2022-12-31T16:17:15.166Z,0.7224080267558528
2022-12-31T16:23:40.498Z,0.46153846153846156
2022-12-31T16:30:01.869Z,0.725752508361204
2022-12-31T16:36:22.129Z,0.7157190635451505
2022-12-31T16:42:44.518Z,0.9331103678929766
2022-12-31T16:50:07.253Z,0.5953177257525084
2022-12-31T16:56:50.914Z,0.5418060200668896
2022-12-31T17:05:59.509Z,0.6086956521739131
2022-12-31T17:17:41.274Z,0.4013377926421405
2022-12-31T17:24:11.642Z,0.3612040133779264
2022-12-31T17:38:30.520Z,0.705685618729097
2022-12-31T17:44:50.876Z,0.4013377926421405
2022-12-31T17:51:10.122Z,0.5418060200668896
2022-12-31T17:57:30.140Z,0.8327759197324415
2022-12-31T18:03:49.548Z,0.5752508361204013
2022-12-31T18:10:10.255Z,1.1438127090301002
2022-12-31T18:16:29.703Z,0.939799331103679
2022-12-31T18:22:49.488Z,0.8996655518394648
2022-12-31T18:40:41.397Z,0.9765886287625418
2022-12-31T18:52:15.400Z,1.0267558528428093
2022-12-31T18:59:17.668Z,0.5150501672240803
2022-12-31T19:05:36.986Z,0.8160535117056856
2022-12-31T19:11:56.603Z,1.3110367892976589
2022-12-31T19:18:16.625Z,0.5217391304347826
2022-12-31T19:24:36.320Z,0.8327759197324415
2022-12-31T19:36:38.651Z,1.2441471571906355
2022-12-31T19:45:06.053Z,0.8494983277591973
2022-12-31T19:51:25.904Z,1.1538461538461537
2022-12-31T19:57:45.043Z,1.100334448160535
2022-12-31T20:04:04.371Z,0.9866220735785953
2022-12-31T20:14:10.095Z,0.7224080267558528
2022-12-31T20:20:29.915Z,0.5819397993311036
2022-12-31T20:26:49.006Z,1.0903010033444815
2022-12-31T20:36:07.631Z,0.6755852842809364
2022-12-31T20:42:27.346Z,0.6956521739130435
2022-12-31T20:49:31.358Z,0.6956521739130435
2022-12-31T20:56:12.271Z,1.8327759197324414
2022-12-31T21:04:41.207Z,0.5618729096989966
2022-12-31T21:12:35.845Z,1.1973244147157192
2022-12-31T21:18:54.666Z,1.1906354515050168
2022-12-31T21:25:14.260Z,1.899665551839465
2022-12-31T21:37:58.880Z,1.1505016722408026
2022-12-31T21:50:21.949Z,1.5618729096989967
2022-12-31T21:56:40.927Z,1.2575250836120402
2022-12-31T22:07:52.507Z,1.4180602006688963
2022-12-31T22:14:11.227Z,0.5618729096989966
2022-12-31T22:20:30.554Z,1.3043478260869565
2022-12-31T22:30:11.576Z,1.4080267558528428
2022-12-31T22:36:30.221Z,1.3411371237458194
2022-12-31T22:42:49.248Z,1.1806020066889633
2022-12-31T22:49:07.945Z,1.6187290969899666
2022-12-31T22:55:27.084Z,2.100334448160535
2022-12-31T23:01:47.582Z,3.4548494983277593
2022-12-31T23:14:54.103Z,5.632107023411371
2022-12-31T23:28:44.438Z,4.431438127090301
2022-12-31T23:35:09.573Z,2.3779264214046822
2022-12-31T23:42:52.920Z,1.939799331103679
2022-12-31T23:53:31.997Z,1.9698996655518395
2022-12-31T23:59:51.373Z,1.7391304347826086
